O.t. Ideaal — PBHH — position and weather

sailwx.info

Track history (hours):
 
Tides and Currents Weather Stations Pressure Air Temp Water Temp Dewpoint Dewpoint Depression Visibility Wind Speed Wind Dir Waves Ship Positions

O.t. Ideaal

Last reported at 2018-Jul-19 13:59 UTC. Time now 2018-Jul-19 14:54 UTC.
Position N 53°11' E 005°26'.

Length 89 m; draft 5.4 m.

Type: Ship. MMSI: 244796000.

Date/timePositionNaut miles runAvg speedWind from/ knotsBaromVisibWave heightAir tempDewpointWater temp
2018-Jul-19 13:59N 53°11' E 005°26'0 0.0
2018-Jul-19 13:28N 53°11' E 005°26'0 0.0
2018-Jul-19 12:58N 53°11' E 005°26'0 0.0
2018-Jul-19 12:28N 53°11' E 005°26'0 0.0
2018-Jul-19 11:58N 53°11' E 005°26'0 0.3
2018-Jul-19 11:30N 53°11' E 005°26'0 0.6
2018-Jul-19 11:00N 53°12' E 005°26'0 0.0
2018-Jul-19 10:30N 53°12' E 005°26'0 0.0
2018-Jul-19 10:00N 53°12' E 005°26'0 0.0
2018-Jul-19 09:30N 53°12' E 005°26'0 0.0
2018-Jul-19 08:59N 53°12' E 005°26'0 0.0
2018-Jul-19 08:29N 53°12' E 005°26'0 0.0
2018-Jul-19 07:59N 53°12' E 005°26'0 0.0
2018-Jul-19 07:26N 53°12' E 005°26'0 0.0
2018-Jul-19 06:55N 53°12' E 005°26'0 0.0
2018-Jul-19 06:28N 53°12' E 005°26'0 0.0
2018-Jul-19 05:58N 53°12' E 005°26'0 0.0
2018-Jul-19 05:28N 53°12' E 005°26'0 0.0
2018-Jul-19 04:58N 53°12' E 005°26'0 0.0
2018-Jul-19 04:30N 53°12' E 005°26'0 0.0
2018-Jul-19 04:00N 53°12' E 005°26'0 0.0
2018-Jul-19 03:30N 53°12' E 005°26'0 0.0
2018-Jul-19 03:00N 53°12' E 005°26'0 0.0
2018-Jul-19 02:30N 53°12' E 005°26'0 0.0
2018-Jul-19 01:59N 53°12' E 005°26'0 0.0
2018-Jul-19 01:29N 53°12' E 005°26'0 0.0
2018-Jul-19 00:59N 53°12' E 005°26'0 0.0
2018-Jul-19 00:29N 53°12' E 005°26'0 0.0
2018-Jul-18 23:58N 53°12' E 005°26'0 0.0
2018-Jul-18 23:28N 53°12' E 005°26'0 0.0
2018-Jul-18 22:58N 53°12' E 005°26'0 0.0
2018-Jul-18 22:28N 53°12' E 005°26'0 0.0
2018-Jul-18 21:58N 53°12' E 005°26'0 0.0
2018-Jul-18 21:30N 53°12' E 005°26'0 0.0
2018-Jul-18 21:00N 53°12' E 005°26'0 0.1
2018-Jul-18 20:30N 53°12' E 005°26'0 0.5
2018-Jul-18 20:00N 53°11' E 005°26'2 3.6
2018-Jul-18 19:30N 53°11' E 005°23'3 6.4
2018-Jul-18 19:00N 53°12' E 005°18'3 5.8
2018-Jul-18 18:30N 53°14' E 005°14'4 7.2
2018-Jul-18 18:00N 53°16' E 005°10'4 7.3
2018-Jul-18 17:30N 53°19' E 005°08'4 8.1
2018-Jul-18 17:00N 53°19' E 005°01'3 6.7
2018-Jul-18 16:30N 53°19' E 004°56'4 7.8
2018-Jul-18 16:00N 53°23' E 004°58'4 9.0
2018-Jul-18 15:30N 53°26' E 005°03'5 9.5
2018-Jul-18 15:00N 53°28' E 005°10'5 9.4
2018-Jul-18 14:30N 53°29' E 005°18'9 9.4
2018-Jul-18 13:30N 53°32' E 005°33'5 9.6
2018-Jul-18 13:00N 53°34' E 005°40'5 9.7
2018-Jul-18 12:30N 53°35' E 005°48'5 9.5
2018-Jul-18 12:00N 53°37' E 005°56'133 8.9
2018-Jul-17 21:01N 55°39' E 007°24'010.3
2018-Jul-17 20:59N 55°40' E 007°24'510.4
2018-Jul-17 20:28N 55°45' E 007°27'95 3.2
2018-Jul-16 15:01N 54°10' E 007°40'112.4
2018-Jul-16 14:57N 54°10' E 007°42'512.3
2018-Jul-16 14:30N 54°07' E 007°49'611.8
2018-Jul-16 13:59N 54°04' E 007°58'511.4
2018-Jul-16 13:30N 54°01' E 008°07'611.3
2018-Jul-16 13:00N 54°00' E 008°16'510.7
2018-Jul-16 12:30N 53°59' E 008°25'5 9.3
2018-Jul-16 12:00N 53°58' E 008°33'4 8.9
2018-Jul-16 11:30N 53°56' E 008°40'5 9.2
2018-Jul-16 11:00N 53°52' E 008°43'2 3.4
2018-Jul-16 10:30N 53°51' E 008°45'0 0.0
2018-Jul-16 09:59N 53°51' E 008°45'0 0.0
2018-Jul-16 09:26N 53°51' E 008°45'0 0.0
2018-Jul-16 08:59N 53°51' E 008°45'0 0.0
2018-Jul-16 08:26N 53°51' E 008°45'0 0.0
2018-Jul-16 07:58N 53°51' E 008°45'0 0.0
2018-Jul-16 07:28N 53°51' E 008°45'0 0.0
2018-Jul-16 06:58N 53°51' E 008°45'0 0.0
2018-Jul-16 06:28N 53°51' E 008°45'0 0.0
2018-Jul-16 06:01N 53°51' E 008°45'0 0.0
2018-Jul-16 05:21N 53°51' E 008°45'0 0.0
2018-Jul-16 05:00N 53°51' E 008°45'0 0.0
2018-Jul-16 04:30N 53°51' E 008°45'0 0.0
2018-Jul-16 04:00N 53°51' E 008°45'0 0.0
2018-Jul-16 03:30N 53°51' E 008°45'0 0.0
2018-Jul-16 02:59N 53°51' E 008°45'0 0.0
2018-Jul-16 02:29N 53°51' E 008°45'0 0.0
2018-Jul-16 01:59N 53°51' E 008°45'0 0.0
2018-Jul-16 01:29N 53°51' E 008°45'0 0.0
2018-Jul-16 00:55N 53°51' E 008°45'0 0.0
2018-Jul-16 00:28N 53°51' E 008°45'0 0.0
2018-Jul-15 23:58N 53°51' E 008°45'0 0.0
2018-Jul-15 23:28N 53°51' E 008°45'0 0.0
2018-Jul-15 23:00N 53°51' E 008°45'0 0.0
2018-Jul-15 22:30N 53°51' E 008°45'0 0.0
2018-Jul-15 21:57N 53°51' E 008°45'0 0.0
2018-Jul-15 21:30N 53°51' E 008°45'0 0.0
2018-Jul-15 21:00N 53°51' E 008°45'0 0.0
2018-Jul-15 20:29N 53°51' E 008°45'0 0.0
2018-Jul-15 19:53N 53°51' E 008°45'0 0.0
2018-Jul-15 19:29N 53°51' E 008°45'0 0.0
2018-Jul-15 18:56N 53°51' E 008°45'0 0.0
2018-Jul-15 18:29N 53°51' E 008°45'0 0.0
2018-Jul-15 17:58N 53°51' E 008°45'0 0.0
2018-Jul-15 17:28N 53°51' E 008°45'0 0.0
2018-Jul-15 16:58N 53°51' E 008°45'0 0.0
2018-Jul-15 16:28N 53°51' E 008°45'0 0.0
2018-Jul-15 16:00N 53°51' E 008°45'0 0.0
2018-Jul-15 15:30N 53°51' E 008°45'0 0.0
2018-Jul-15 15:00N 53°51' E 008°45'0 0.6
2018-Jul-15 14:30N 53°51' E 008°45'3 6.1
2018-Jul-15 14:00N 53°54' E 008°42'611.6
2018-Jul-15 13:30N 53°58' E 008°35'612.6
2018-Jul-15 13:00N 53°59' E 008°24'612.1
2018-Jul-15 12:30N 53°59' E 008°14'5 8.9
2018-Jul-15 11:59N 53°59' E 008°06'4 8.5
2018-Jul-15 11:30N 53°59' E 007°59'4 8.6
2018-Jul-15 10:59N 53°58' E 007°51'3413.1
2018-Jul-15 08:22N 53°50' E 006°55'613.6
2018-Jul-15 07:56N 53°49' E 006°45'613.3
2018-Jul-15 07:30N 53°47' E 006°36'613.1
2018-Jul-15 07:00N 53°46' E 006°25'712.7
2018-Jul-15 06:29N 53°44' E 006°14'712.3
2018-Jul-15 05:57N 53°42' E 006°04'612.0
2018-Jul-15 05:25N 53°40' E 005°53'511.6
2018-Jul-15 04:56N 53°38' E 005°45'511.3
2018-Jul-15 04:30N 53°36' E 005°37'511.0
2018-Jul-15 04:00N 53°35' E 005°28'510.8
2018-Jul-15 03:30N 53°33' E 005°19'610.7
2018-Jul-15 02:59N 53°31' E 005°11'510.7
2018-Jul-15 02:29N 53°29' E 005°02'510.7
2018-Jul-15 01:59N 53°27' E 004°54'610.7
2018-Jul-15 01:27N 53°24' E 004°46'510.4
2018-Jul-15 00:59N 53°20' E 004°40'511.0
2018-Jul-15 00:30N 53°16' E 004°36'610.9
2018-Jul-15 00:00N 53°11' E 004°32'511.0
2018-Jul-14 23:30N 53°06' E 004°28'510.8
2018-Jul-14 23:00N 53°01' E 004°23'610.7
2018-Jul-14 22:28N 52°56' E 004°19'510.9
2018-Jul-14 22:00N 52°52' E 004°16'510.5
2018-Jul-14 21:30N 52°47' E 004°11'610.8
2018-Jul-14 20:59N 52°43' E 004°05'511.1
2018-Jul-14 20:30N 52°39' E 003°58'611.2
2018-Jul-14 20:00N 52°36' E 003°52'611.6
2018-Jul-14 19:30N 52°32' E 003°45'611.9
2018-Jul-14 19:00N 52°28' E 003°37'612.3
2018-Jul-14 18:30N 52°23' E 003°30'612.4
2018-Jul-14 18:00N 52°19' E 003°23'612.7
2018-Jul-14 17:30N 52°14' E 003°16'613.0
2018-Jul-14 17:00N 52°10' E 003°09'713.2
2018-Jul-14 16:30N 52°05' E 003°01'713.6
2018-Jul-14 16:01N 51°60' E 002°54'713.8
2018-Jul-14 15:30N 51°55' E 002°47'713.9
2018-Jul-14 15:00N 51°49' E 002°39'714.0
2018-Jul-14 14:30N 51°44' E 002°32'1414.0
2018-Jul-14 13:30N 51°33' E 002°18'713.5
2018-Jul-14 13:00N 51°28' E 002°11'612.6
2018-Jul-14 12:30N 51°22' E 002°08'612.8
2018-Jul-14 12:00N 51°16' E 002°05'713.0
2018-Jul-14 11:30N 51°11' E 001°57'612.9
2018-Jul-14 11:00N 51°08' E 001°48'612.4
2018-Jul-14 10:30N 51°04' E 001°41'611.4
2018-Jul-14 10:00N 51°00' E 001°34'510.6
2018-Jul-14 09:30N 50°56' E 001°28'5 9.8
2018-Jul-14 09:00N 50°52' E 001°25'5 9.6
2018-Jul-14 08:30N 50°47' E 001°23'5 9.8
2018-Jul-14 08:00N 50°42' E 001°21'510.3
2018-Jul-14 07:30N 50°39' E 001°16'510.4
2018-Jul-14 07:00N 50°35' E 001°10'510.5
2018-Jul-14 06:30N 50°31' E 001°04'510.2
2018-Jul-14 06:00N 50°29' E 000°57'510.6
2018-Jul-14 05:30N 50°28' E 000°49'510.6
2018-Jul-14 05:00N 50°26' E 000°41'510.5
2018-Jul-14 04:30N 50°25' E 000°33'510.5
2018-Jul-14 04:00N 50°24' E 000°25'510.2
2018-Jul-14 03:30N 50°22' E 000°17'510.1
2018-Jul-14 03:00N 50°21' E 000°09'510.3
2018-Jul-14 02:30N 50°20' E 000°02'510.4
2018-Jul-14 02:00N 50°18' W 000°06'510.5
2018-Jul-14 01:30N 50°17' W 000°14'510.5
2018-Jul-14 01:00N 50°15' W 000°22'510.7
2018-Jul-14 00:30N 50°14' W 000°30'611.2
2018-Jul-14 00:00N 50°12' W 000°38'612.0
2018-Jul-13 23:30N 50°11' W 000°47'612.5
2018-Jul-13 23:00N 50°09' W 000°57'2214.5
2018-Jul-13 21:30N 50°03' W 001°29'915.8
2018-Jul-13 20:56N 50°01' W 001°43'816.3
2018-Jul-13 20:27N 49°59' W 001°55'716.5
2018-Jul-13 20:00N 49°57' W 002°06'816.2
2018-Jul-13 19:30N 49°54' W 002°18'815.4
2018-Jul-13 19:00N 49°52' W 002°29'714.7
2018-Jul-13 18:30N 49°50' W 002°40'714.3
2018-Jul-13 18:01N 49°48' W 002°51'8811.9
2018-Jul-13 10:38N 48°56' W 004°39'3 9.8
2018-Jul-13 10:19N 48°54' W 004°43'3 9.9
2018-Jul-13 10:00N 48°52' W 004°47'5 9.7
2018-Jul-13 09:30N 48°49' W 004°53'5 9.7
2018-Jul-13 08:59N 48°46' W 004°59'510.1
2018-Jul-13 08:30N 48°43' W 005°05'510.2
2018-Jul-13 08:00N 48°40' W 005°11'710.7
2018-Jul-13 07:18N 48°35' W 005°19'2510.8
2018-Jul-13 05:00N 48°10' W 005°19'911.8
2018-Jul-13 04:16N 48°01' W 005°17'410.6
2018-Jul-13 03:51N 47°58' W 005°13'411.6
2018-Jul-13 03:30N 47°56' W 005°08'611.9
2018-Jul-13 02:58N 47°53' W 004°59'612.2
2018-Jul-13 02:30N 47°50' W 004°52'3112.2
2018-Jul-12 23:59N 47°35' W 004°12'1012.4
2018-Jul-12 23:10N 47°30' W 003°59'212.4
2018-Jul-12 23:00N 47°29' W 003°56'612.2
2018-Jul-12 22:30N 47°26' W 003°48'612.1
2018-Jul-12 22:00N 47°23' W 003°41'612.1
2018-Jul-12 21:30N 47°20' W 003°33'611.9
2018-Jul-12 21:00N 47°17' W 003°25'611.5
2018-Jul-12 20:30N 47°14' W 003°18'611.5
2018-Jul-12 20:00N 47°12' W 003°10'611.4
2018-Jul-12 19:30N 47°09' W 003°03'611.1
2018-Jul-12 19:00N 47°06' W 002°56'611.2
2018-Jul-12 18:30N 47°03' W 002°49'510.8
2018-Jul-12 18:00N 47°01' W 002°41'611.6
2018-Jul-12 17:29N 47°03' W 002°33'612.2
2018-Jul-12 17:00N 47°06' W 002°25'711.2
2018-Jul-12 16:25N 47°10' W 002°19'512.1
2018-Jul-12 15:59N 47°15' W 002°14'4 9.2
2018-Jul-12 15:29N 47°18' W 002°09'0 0.0
2018-Jul-12 14:59N 47°18' W 002°09'0 0.0
2018-Jul-12 14:14N 47°18' W 002°09'0 0.0
2018-Jul-12 13:56N 47°18' W 002°09'0 0.0
2018-Jul-12 13:16N 47°18' W 002°09'0 0.0
2018-Jul-12 12:55N 47°18' W 002°09'0 0.0
2018-Jul-12 07:11N 47°18' W 002°09'0 0.0
2018-Jul-12 06:50N 47°18' W 002°09'0 0.0
2018-Jul-12 06:19N 47°18' W 002°09'0 0.0
2018-Jul-12 05:25N 47°18' W 002°09'0 0.0
2018-Jul-12 04:49N 47°18' W 002°09'0 0.0
2018-Jul-12 04:16N 47°18' W 002°09'26 1.6
2018-Jul-11 11:41N 47°00' W 002°39'1111.5
2018-Jul-11 10:44N 47°03' W 002°54'411.5
2018-Jul-11 10:22N 47°04' W 002°60'611.4
2018-Jul-11 09:53N 47°06' W 003°07'511.3
2018-Jul-11 09:27N 47°08' W 003°14'511.1
2018-Jul-11 08:58N 47°10' W 003°21'510.9
2018-Jul-11 08:30N 47°12' W 003°28'510.8
2018-Jul-11 08:01N 47°14' W 003°35'1210.7
2018-Jul-11 06:55N 47°19' W 003°51'510.7
2018-Jul-11 06:25N 47°22' W 003°58'510.6
2018-Jul-11 05:55N 47°24' W 004°05'810.7
2018-Jul-11 05:12N 47°28' W 004°15'1010.8
2018-Jul-11 04:16N 47°32' W 004°28'310.7
2018-Jul-11 03:59N 47°34' W 004°32'510.9
2018-Jul-11 03:30N 47°36' W 004°39'3110.9
2018-Jul-11 00:40N 47°52' W 005°18'2010.8
2018-Jul-10 22:50N 48°08' W 005°36'4410.5
2018-Jul-10 18:35N 48°51' W 005°50'412.1
2018-Jul-10 18:16N 48°54' W 005°46'2912.1
2018-Jul-10 15:53N 49°09' W 005°08'8311.8
2018-Jul-10 08:52N 49°51' W 003°19'1212.7
2018-Jul-10 07:55N 49°57' W 003°02'810.7
2018-Jul-10 07:11N 50°01' W 002°51'511.7
2018-Jul-10 06:46N 50°02' W 002°44'2410.4
2018-Jul-10 04:30N 50°09' W 002°09'5 9.9
2018-Jul-10 04:00N 50°10' W 002°01'510.1
2018-Jul-10 03:31N 50°12' W 001°54'510.6
2018-Jul-10 03:01N 50°13' W 001°46'1711.8
2018-Jul-10 01:36N 50°18' W 001°21'112.9
2018-Jul-10 01:31N 50°18' W 001°19'713.4
2018-Jul-10 01:00N 50°20' W 001°09'714.2
2018-Jul-10 00:30N 50°22' W 000°58'714.5
2018-Jul-10 00:00N 50°24' W 000°47'612.8
2018-Jul-09 23:30N 50°26' W 000°38'714.0
2018-Jul-09 23:00N 50°28' W 000°27'813.9
2018-Jul-09 22:27N 50°30' W 000°16'913.3
2018-Jul-09 21:46N 50°32' W 000°02'413.0
2018-Jul-09 21:29N 50°33' E 000°04'912.6
2018-Jul-09 20:48N 50°35' E 000°17'412.3
2018-Jul-09 20:30N 50°36' E 000°23'612.0
2018-Jul-09 20:00N 50°37' E 000°32'611.7
2018-Jul-09 19:30N 50°40' E 000°40'611.8
2018-Jul-09 19:00N 50°44' E 000°47'611.5
2018-Jul-09 18:30N 50°47' E 000°55'611.7
2018-Jul-09 18:00N 50°51' E 001°02'612.2
2018-Jul-09 17:30N 50°55' E 001°09'612.7
2018-Jul-09 17:00N 50°59' E 001°17'713.9
2018-Jul-09 16:30N 51°04' E 001°25'815.5
2018-Jul-09 16:00N 51°08' E 001°35'815.1
2018-Jul-09 15:30N 51°13' E 001°44'714.1
2018-Jul-09 15:00N 51°19' E 001°49'713.5
2018-Jul-09 14:30N 51°26' E 001°53'612.6
2018-Jul-09 14:00N 51°30' E 002°00'  
Track history (hours):
 
Tides and Currents Weather Stations Pressure Air Temp Water Temp Dewpoint Dewpoint Depression Visibility Wind Speed Wind Dir Waves Ship Positions

O.t. Ideaal

Last reported at 2018-Jul-19 13:59 UTC. Time now 2018-Jul-19 14:54 UTC.
Position N 53°11' E 005°26'.

Length 89 m; draft 5.4 m.

Type: Ship. MMSI: 244796000.

Date/timePositionNaut miles runAvg speedWind from/ knotsBaromVisibWave heightAir tempDewpointWater temp
2018-Jul-19 13:59N 53°11' E 005°26'0 0.0
2018-Jul-19 13:28N 53°11' E 005°26'0 0.0
2018-Jul-19 12:58N 53°11' E 005°26'0 0.0
2018-Jul-19 12:28N 53°11' E 005°26'0 0.0
2018-Jul-19 11:58N 53°11' E 005°26'0 0.3
2018-Jul-19 11:30N 53°11' E 005°26'0 0.6
2018-Jul-19 11:00N 53°12' E 005°26'0 0.0
2018-Jul-19 10:30N 53°12' E 005°26'0 0.0
2018-Jul-19 10:00N 53°12' E 005°26'0 0.0
2018-Jul-19 09:30N 53°12' E 005°26'0 0.0
2018-Jul-19 08:59N 53°12' E 005°26'0 0.0
2018-Jul-19 08:29N 53°12' E 005°26'0 0.0
2018-Jul-19 07:59N 53°12' E 005°26'0 0.0
2018-Jul-19 07:26N 53°12' E 005°26'0 0.0
2018-Jul-19 06:55N 53°12' E 005°26'0 0.0
2018-Jul-19 06:28N 53°12' E 005°26'0 0.0
2018-Jul-19 05:58N 53°12' E 005°26'0 0.0
2018-Jul-19 05:28N 53°12' E 005°26'0 0.0
2018-Jul-19 04:58N 53°12' E 005°26'0 0.0
2018-Jul-19 04:30N 53°12' E 005°26'0 0.0
2018-Jul-19 04:00N 53°12' E 005°26'0 0.0
2018-Jul-19 03:30N 53°12' E 005°26'0 0.0
2018-Jul-19 03:00N 53°12' E 005°26'0 0.0
2018-Jul-19 02:30N 53°12' E 005°26'0 0.0
2018-Jul-19 01:59N 53°12' E 005°26'0 0.0
2018-Jul-19 01:29N 53°12' E 005°26'0 0.0
2018-Jul-19 00:59N 53°12' E 005°26'0 0.0
2018-Jul-19 00:29N 53°12' E 005°26'0 0.0
2018-Jul-18 23:58N 53°12' E 005°26'0 0.0
2018-Jul-18 23:28N 53°12' E 005°26'0 0.0
2018-Jul-18 22:58N 53°12' E 005°26'0 0.0
2018-Jul-18 22:28N 53°12' E 005°26'0 0.0
2018-Jul-18 21:58N 53°12' E 005°26'0 0.0
2018-Jul-18 21:30N 53°12' E 005°26'0 0.0
2018-Jul-18 21:00N 53°12' E 005°26'0 0.1
2018-Jul-18 20:30N 53°12' E 005°26'0 0.5
2018-Jul-18 20:00N 53°11' E 005°26'2 3.6
2018-Jul-18 19:30N 53°11' E 005°23'3 6.4
2018-Jul-18 19:00N 53°12' E 005°18'3 5.8
2018-Jul-18 18:30N 53°14' E 005°14'4 7.2
2018-Jul-18 18:00N 53°16' E 005°10'4 7.3
2018-Jul-18 17:30N 53°19' E 005°08'4 8.1
2018-Jul-18 17:00N 53°19' E 005°01'3 6.7
2018-Jul-18 16:30N 53°19' E 004°56'4 7.8
2018-Jul-18 16:00N 53°23' E 004°58'4 9.0
2018-Jul-18 15:30N 53°26' E 005°03'5 9.5
2018-Jul-18 15:00N 53°28' E 005°10'5 9.4
2018-Jul-18 14:30N 53°29' E 005°18'9 9.4
2018-Jul-18 13:30N 53°32' E 005°33'5 9.6
2018-Jul-18 13:00N 53°34' E 005°40'5 9.7
2018-Jul-18 12:30N 53°35' E 005°48'5 9.5
2018-Jul-18 12:00N 53°37' E 005°56'133 8.9
2018-Jul-17 21:01N 55°39' E 007°24'010.3
2018-Jul-17 20:59N 55°40' E 007°24'510.4
2018-Jul-17 20:28N 55°45' E 007°27'95 3.2
2018-Jul-16 15:01N 54°10' E 007°40'112.4
2018-Jul-16 14:57N 54°10' E 007°42'512.3
2018-Jul-16 14:30N 54°07' E 007°49'611.8
2018-Jul-16 13:59N 54°04' E 007°58'511.4
2018-Jul-16 13:30N 54°01' E 008°07'611.3
2018-Jul-16 13:00N 54°00' E 008°16'510.7
2018-Jul-16 12:30N 53°59' E 008°25'5 9.3
2018-Jul-16 12:00N 53°58' E 008°33'4 8.9
2018-Jul-16 11:30N 53°56' E 008°40'5 9.2
2018-Jul-16 11:00N 53°52' E 008°43'2 3.4
2018-Jul-16 10:30N 53°51' E 008°45'0 0.0
2018-Jul-16 09:59N 53°51' E 008°45'0 0.0
2018-Jul-16 09:26N 53°51' E 008°45'0 0.0
2018-Jul-16 08:59N 53°51' E 008°45'0 0.0
2018-Jul-16 08:26N 53°51' E 008°45'0 0.0
2018-Jul-16 07:58N 53°51' E 008°45'0 0.0
2018-Jul-16 07:28N 53°51' E 008°45'0 0.0
2018-Jul-16 06:58N 53°51' E 008°45'0 0.0
2018-Jul-16 06:28N 53°51' E 008°45'0 0.0
2018-Jul-16 06:01N 53°51' E 008°45'0 0.0
2018-Jul-16 05:21N 53°51' E 008°45'0 0.0
2018-Jul-16 05:00N 53°51' E 008°45'0 0.0
2018-Jul-16 04:30N 53°51' E 008°45'0 0.0
2018-Jul-16 04:00N 53°51' E 008°45'0 0.0
2018-Jul-16 03:30N 53°51' E 008°45'0 0.0
2018-Jul-16 02:59N 53°51' E 008°45'0 0.0
2018-Jul-16 02:29N 53°51' E 008°45'0 0.0
2018-Jul-16 01:59N 53°51' E 008°45'0 0.0
2018-Jul-16 01:29N 53°51' E 008°45'0 0.0
2018-Jul-16 00:55N 53°51' E 008°45'0 0.0
2018-Jul-16 00:28N 53°51' E 008°45'0 0.0
2018-Jul-15 23:58N 53°51' E 008°45'0 0.0
2018-Jul-15 23:28N 53°51' E 008°45'0 0.0
2018-Jul-15 23:00N 53°51' E 008°45'0 0.0
2018-Jul-15 22:30N 53°51' E 008°45'0 0.0
2018-Jul-15 21:57N 53°51' E 008°45'0 0.0
2018-Jul-15 21:30N 53°51' E 008°45'0 0.0
2018-Jul-15 21:00N 53°51' E 008°45'0 0.0
2018-Jul-15 20:29N 53°51' E 008°45'0 0.0
2018-Jul-15 19:53N 53°51' E 008°45'0 0.0
2018-Jul-15 19:29N 53°51' E 008°45'0 0.0
2018-Jul-15 18:56N 53°51' E 008°45'0 0.0
2018-Jul-15 18:29N 53°51' E 008°45'0 0.0
2018-Jul-15 17:58N 53°51' E 008°45'0 0.0
2018-Jul-15 17:28N 53°51' E 008°45'0 0.0
2018-Jul-15 16:58N 53°51' E 008°45'0 0.0
2018-Jul-15 16:28N 53°51' E 008°45'0 0.0
2018-Jul-15 16:00N 53°51' E 008°45'0 0.0
2018-Jul-15 15:30N 53°51' E 008°45'0 0.0
2018-Jul-15 15:00N 53°51' E 008°45'0 0.6
2018-Jul-15 14:30N 53°51' E 008°45'3 6.1
2018-Jul-15 14:00N 53°54' E 008°42'611.6
2018-Jul-15 13:30N 53°58' E 008°35'612.6
2018-Jul-15 13:00N 53°59' E 008°24'612.1
2018-Jul-15 12:30N 53°59' E 008°14'5 8.9
2018-Jul-15 11:59N 53°59' E 008°06'4 8.5
2018-Jul-15 11:30N 53°59' E 007°59'4 8.6
2018-Jul-15 10:59N 53°58' E 007°51'3413.1
2018-Jul-15 08:22N 53°50' E 006°55'613.6
2018-Jul-15 07:56N 53°49' E 006°45'613.3
2018-Jul-15 07:30N 53°47' E 006°36'613.1
2018-Jul-15 07:00N 53°46' E 006°25'712.7
2018-Jul-15 06:29N 53°44' E 006°14'712.3
2018-Jul-15 05:57N 53°42' E 006°04'612.0
2018-Jul-15 05:25N 53°40' E 005°53'511.6
2018-Jul-15 04:56N 53°38' E 005°45'511.3
2018-Jul-15 04:30N 53°36' E 005°37'511.0
2018-Jul-15 04:00N 53°35' E 005°28'510.8
2018-Jul-15 03:30N 53°33' E 005°19'610.7
2018-Jul-15 02:59N 53°31' E 005°11'510.7
2018-Jul-15 02:29N 53°29' E 005°02'510.7
2018-Jul-15 01:59N 53°27' E 004°54'610.7
2018-Jul-15 01:27N 53°24' E 004°46'510.4
2018-Jul-15 00:59N 53°20' E 004°40'511.0
2018-Jul-15 00:30N 53°16' E 004°36'610.9
2018-Jul-15 00:00N 53°11' E 004°32'511.0
2018-Jul-14 23:30N 53°06' E 004°28'510.8
2018-Jul-14 23:00N 53°01' E 004°23'610.7
2018-Jul-14 22:28N 52°56' E 004°19'510.9
2018-Jul-14 22:00N 52°52' E 004°16'510.5
2018-Jul-14 21:30N 52°47' E 004°11'610.8
2018-Jul-14 20:59N 52°43' E 004°05'511.1
2018-Jul-14 20:30N 52°39' E 003°58'611.2
2018-Jul-14 20:00N 52°36' E 003°52'611.6
2018-Jul-14 19:30N 52°32' E 003°45'611.9
2018-Jul-14 19:00N 52°28' E 003°37'612.3
2018-Jul-14 18:30N 52°23' E 003°30'612.4
2018-Jul-14 18:00N 52°19' E 003°23'612.7
2018-Jul-14 17:30N 52°14' E 003°16'613.0
2018-Jul-14 17:00N 52°10' E 003°09'713.2
2018-Jul-14 16:30N 52°05' E 003°01'713.6
2018-Jul-14 16:01N 51°60' E 002°54'713.8
2018-Jul-14 15:30N 51°55' E 002°47'713.9
2018-Jul-14 15:00N 51°49' E 002°39'714.0
2018-Jul-14 14:30N 51°44' E 002°32'1414.0
2018-Jul-14 13:30N 51°33' E 002°18'713.5
2018-Jul-14 13:00N 51°28' E 002°11'612.6
2018-Jul-14 12:30N 51°22' E 002°08'612.8
2018-Jul-14 12:00N 51°16' E 002°05'713.0
2018-Jul-14 11:30N 51°11' E 001°57'612.9
2018-Jul-14 11:00N 51°08' E 001°48'612.4
2018-Jul-14 10:30N 51°04' E 001°41'611.4
2018-Jul-14 10:00N 51°00' E 001°34'510.6
2018-Jul-14 09:30N 50°56' E 001°28'5 9.8
2018-Jul-14 09:00N 50°52' E 001°25'5 9.6
2018-Jul-14 08:30N 50°47' E 001°23'5 9.8
2018-Jul-14 08:00N 50°42' E 001°21'510.3
2018-Jul-14 07:30N 50°39' E 001°16'510.4
2018-Jul-14 07:00N 50°35' E 001°10'510.5
2018-Jul-14 06:30N 50°31' E 001°04'510.2
2018-Jul-14 06:00N 50°29' E 000°57'510.6
2018-Jul-14 05:30N 50°28' E 000°49'510.6
2018-Jul-14 05:00N 50°26' E 000°41'510.5
2018-Jul-14 04:30N 50°25' E 000°33'510.5
2018-Jul-14 04:00N 50°24' E 000°25'510.2
2018-Jul-14 03:30N 50°22' E 000°17'510.1
2018-Jul-14 03:00N 50°21' E 000°09'510.3
2018-Jul-14 02:30N 50°20' E 000°02'510.4
2018-Jul-14 02:00N 50°18' W 000°06'510.5
2018-Jul-14 01:30N 50°17' W 000°14'510.5
2018-Jul-14 01:00N 50°15' W 000°22'510.7
2018-Jul-14 00:30N 50°14' W 000°30'611.2
2018-Jul-14 00:00N 50°12' W 000°38'612.0
2018-Jul-13 23:30N 50°11' W 000°47'612.5
2018-Jul-13 23:00N 50°09' W 000°57'2214.5
2018-Jul-13 21:30N 50°03' W 001°29'915.8
2018-Jul-13 20:56N 50°01' W 001°43'816.3
2018-Jul-13 20:27N 49°59' W 001°55'716.5
2018-Jul-13 20:00N 49°57' W 002°06'816.2
2018-Jul-13 19:30N 49°54' W 002°18'815.4
2018-Jul-13 19:00N 49°52' W 002°29'714.7
2018-Jul-13 18:30N 49°50' W 002°40'714.3
2018-Jul-13 18:01N 49°48' W 002°51'8811.9
2018-Jul-13 10:38N 48°56' W 004°39'3 9.8
2018-Jul-13 10:19N 48°54' W 004°43'3 9.9
2018-Jul-13 10:00N 48°52' W 004°47'5 9.7
2018-Jul-13 09:30N 48°49' W 004°53'5 9.7
2018-Jul-13 08:59N 48°46' W 004°59'510.1
2018-Jul-13 08:30N 48°43' W 005°05'510.2
2018-Jul-13 08:00N 48°40' W 005°11'710.7
2018-Jul-13 07:18N 48°35' W 005°19'2510.8
2018-Jul-13 05:00N 48°10' W 005°19'911.8
2018-Jul-13 04:16N 48°01' W 005°17'410.6
2018-Jul-13 03:51N 47°58' W 005°13'411.6
2018-Jul-13 03:30N 47°56' W 005°08'611.9
2018-Jul-13 02:58N 47°53' W 004°59'612.2
2018-Jul-13 02:30N 47°50' W 004°52'3112.2
2018-Jul-12 23:59N 47°35' W 004°12'1012.4
2018-Jul-12 23:10N 47°30' W 003°59'212.4
2018-Jul-12 23:00N 47°29' W 003°56'612.2
2018-Jul-12 22:30N 47°26' W 003°48'612.1
2018-Jul-12 22:00N 47°23' W 003°41'612.1
2018-Jul-12 21:30N 47°20' W 003°33'611.9
2018-Jul-12 21:00N 47°17' W 003°25'611.5
2018-Jul-12 20:30N 47°14' W 003°18'611.5
2018-Jul-12 20:00N 47°12' W 003°10'611.4
2018-Jul-12 19:30N 47°09' W 003°03'611.1
2018-Jul-12 19:00N 47°06' W 002°56'611.2
2018-Jul-12 18:30N 47°03' W 002°49'510.8
2018-Jul-12 18:00N 47°01' W 002°41'611.6
2018-Jul-12 17:29N 47°03' W 002°33'612.2
2018-Jul-12 17:00N 47°06' W 002°25'711.2
2018-Jul-12 16:25N 47°10' W 002°19'512.1
2018-Jul-12 15:59N 47°15' W 002°14'4 9.2
2018-Jul-12 15:29N 47°18' W 002°09'0 0.0
2018-Jul-12 14:59N 47°18' W 002°09'0 0.0
2018-Jul-12 14:14N 47°18' W 002°09'0 0.0
2018-Jul-12 13:56N 47°18' W 002°09'0 0.0
2018-Jul-12 13:16N 47°18' W 002°09'0 0.0
2018-Jul-12 12:55N 47°18' W 002°09'0 0.0
2018-Jul-12 07:11N 47°18' W 002°09'0 0.0
2018-Jul-12 06:50N 47°18' W 002°09'0 0.0
2018-Jul-12 06:19N 47°18' W 002°09'0 0.0
2018-Jul-12 05:25N 47°18' W 002°09'0 0.0
2018-Jul-12 04:49N 47°18' W 002°09'0 0.0
2018-Jul-12 04:16N 47°18' W 002°09'26 1.6
2018-Jul-11 11:41N 47°00' W 002°39'1111.5
2018-Jul-11 10:44N 47°03' W 002°54'411.5
2018-Jul-11 10:22N 47°04' W 002°60'611.4
2018-Jul-11 09:53N 47°06' W 003°07'511.3
2018-Jul-11 09:27N 47°08' W 003°14'511.1
2018-Jul-11 08:58N 47°10' W 003°21'510.9
2018-Jul-11 08:30N 47°12' W 003°28'510.8
2018-Jul-11 08:01N 47°14' W 003°35'1210.7
2018-Jul-11 06:55N 47°19' W 003°51'510.7
2018-Jul-11 06:25N 47°22' W 003°58'510.6
2018-Jul-11 05:55N 47°24' W 004°05'810.7
2018-Jul-11 05:12N 47°28' W 004°15'1010.8
2018-Jul-11 04:16N 47°32' W 004°28'310.7
2018-Jul-11 03:59N 47°34' W 004°32'510.9
2018-Jul-11 03:30N 47°36' W 004°39'3110.9
2018-Jul-11 00:40N 47°52' W 005°18'2010.8
2018-Jul-10 22:50N 48°08' W 005°36'4410.5
2018-Jul-10 18:35N 48°51' W 005°50'412.1
2018-Jul-10 18:16N 48°54' W 005°46'2912.1
2018-Jul-10 15:53N 49°09' W 005°08'8311.8
2018-Jul-10 08:52N 49°51' W 003°19'1212.7
2018-Jul-10 07:55N 49°57' W 003°02'810.7
2018-Jul-10 07:11N 50°01' W 002°51'511.7
2018-Jul-10 06:46N 50°02' W 002°44'2410.4
2018-Jul-10 04:30N 50°09' W 002°09'5 9.9
2018-Jul-10 04:00N 50°10' W 002°01'510.1
2018-Jul-10 03:31N 50°12' W 001°54'510.6
2018-Jul-10 03:01N 50°13' W 001°46'1711.8
2018-Jul-10 01:36N 50°18' W 001°21'112.9
2018-Jul-10 01:31N 50°18' W 001°19'713.4
2018-Jul-10 01:00N 50°20' W 001°09'714.2
2018-Jul-10 00:30N 50°22' W 000°58'714.5
2018-Jul-10 00:00N 50°24' W 000°47'612.8
2018-Jul-09 23:30N 50°26' W 000°38'714.0
2018-Jul-09 23:00N 50°28' W 000°27'813.9
2018-Jul-09 22:27N 50°30' W 000°16'913.3
2018-Jul-09 21:46N 50°32' W 000°02'413.0
2018-Jul-09 21:29N 50°33' E 000°04'912.6
2018-Jul-09 20:48N 50°35' E 000°17'412.3
2018-Jul-09 20:30N 50°36' E 000°23'612.0
2018-Jul-09 20:00N 50°37' E 000°32'611.7
2018-Jul-09 19:30N 50°40' E 000°40'611.8
2018-Jul-09 19:00N 50°44' E 000°47'611.5
2018-Jul-09 18:30N 50°47' E 000°55'611.7
2018-Jul-09 18:00N 50°51' E 001°02'612.2
2018-Jul-09 17:30N 50°55' E 001°09'612.7
2018-Jul-09 17:00N 50°59' E 001°17'713.9
2018-Jul-09 16:30N 51°04' E 001°25'815.5
2018-Jul-09 16:00N 51°08' E 001°35'815.1
2018-Jul-09 15:30N 51°13' E 001°44'714.1
2018-Jul-09 15:00N 51°19' E 001°49'713.5
2018-Jul-09 14:30N 51°26' E 001°53'612.6
2018-Jul-09 14:00N 51°30' E 002°00'  

Dump ship's entire track history